createdAt,value
2018-09-23T00:02:27.368Z,2.02
2018-09-23T00:04:55.545Z,2.67
2018-09-23T00:07:23.596Z,2.20
2018-09-23T00:09:51.670Z,1.90
2018-09-23T00:12:19.722Z,1.52
2018-09-23T00:14:47.773Z,2.20
2018-09-23T00:17:15.817Z,1.57
2018-09-23T00:19:43.865Z,1.77
2018-09-23T00:22:11.985Z,1.85
2018-09-23T00:24:39.979Z,1.98
2018-09-23T00:27:08.024Z,1.98
2018-09-23T00:29:41.628Z,1.60
2018-09-23T00:32:09.700Z,2.17
2018-09-23T00:34:37.745Z,1.60
2018-09-23T00:37:05.805Z,1.87
2018-09-23T00:39:33.851Z,1.70
2018-09-23T00:42:01.918Z,1.45
2018-09-23T00:44:29.961Z,1.82
2018-09-23T00:46:58.021Z,1.77
2018-09-23T00:49:26.076Z,1.85
2018-09-23T00:51:54.132Z,1.90
2018-09-23T00:54:22.186Z,1.70
2018-09-23T00:56:50.240Z,1.60
2018-09-23T00:59:18.296Z,1.70
2018-09-23T01:01:46.353Z,1.67
2018-09-23T01:04:14.400Z,1.77
2018-09-23T01:06:42.454Z,2.00
2018-09-23T01:09:10.852Z,2.02
2018-09-23T01:11:39.147Z,1.60
2018-09-23T01:14:07.228Z,1.45
2018-09-23T01:16:35.319Z,1.95
2018-09-23T01:19:03.372Z,1.35
2018-09-23T01:21:31.445Z,1.35
2018-09-23T01:23:59.505Z,1.62
2018-09-23T01:26:27.566Z,1.65
2018-09-23T01:28:55.661Z,2.02
2018-09-23T01:31:23.716Z,1.72
2018-09-23T01:33:51.877Z,1.50
2018-09-23T01:36:19.921Z,1.45
2018-09-23T01:38:47.980Z,1.65
2018-09-23T01:41:16.036Z,1.72
2018-09-23T01:43:44.247Z,1.75
2018-09-23T01:46:12.296Z,1.80
2018-09-23T01:48:40.372Z,2.15
2018-09-23T01:51:08.424Z,2.25
2018-09-23T01:53:36.488Z,2.05
2018-09-23T01:56:04.550Z,1.98
2018-09-23T01:58:32.649Z,2.20
2018-09-23T02:01:00.741Z,1.70
2018-09-23T02:03:28.788Z,1.87
2018-09-23T02:05:57.018Z,1.90
2018-09-23T02:08:25.211Z,2.35
2018-09-23T02:10:53.492Z,2.40
2018-09-23T02:13:21.929Z,2.15
2018-09-23T02:15:49.963Z,1.80
2018-09-23T02:18:18.028Z,2.37
2018-09-23T02:20:46.093Z,2.95
2018-09-23T02:23:14.165Z,2.10
2018-09-23T02:25:42.225Z,2.45
2018-09-23T02:28:10.295Z,3.58
2018-09-23T02:30:38.340Z,2.65
2018-09-23T02:33:06.412Z,2.45
2018-09-23T02:35:34.466Z,2.77
2018-09-23T02:38:02.544Z,2.87
2018-09-23T02:40:30.596Z,2.90
2018-09-23T02:42:58.658Z,3.00
2018-09-23T02:45:26.710Z,2.47
2018-09-23T02:47:54.764Z,3.02
2018-09-23T02:50:22.829Z,3.27
2018-09-23T02:52:50.900Z,3.42
2018-09-23T02:55:18.944Z,3.70
2018-09-23T02:57:46.992Z,2.72
2018-09-23T03:00:15.045Z,3.90
2018-09-23T03:02:43.101Z,3.75
2018-09-23T03:05:11.158Z,3.58
2018-09-23T03:07:39.233Z,4.28
2018-09-23T03:10:07.293Z,4.35
2018-09-23T03:12:35.353Z,4.10
2018-09-23T03:15:03.409Z,3.50
2018-09-23T03:17:31.456Z,3.92
2018-09-23T03:19:59.524Z,4.12
2018-09-23T03:22:27.560Z,3.95
2018-09-23T03:24:55.622Z,3.42
2018-09-23T03:27:23.673Z,3.25
2018-09-23T03:29:51.733Z,3.10
2018-09-23T03:32:19.796Z,3.05
2018-09-23T03:34:47.856Z,3.40
2018-09-23T03:37:15.908Z,2.80
2018-09-23T03:39:43.974Z,2.60
2018-09-23T03:42:12.030Z,2.90
2018-09-23T03:44:40.088Z,2.22
2018-09-23T03:47:08.151Z,2.15
2018-09-23T03:49:36.221Z,2.72
2018-09-23T03:52:04.269Z,1.70
2018-09-23T03:54:32.332Z,1.77
2018-09-23T03:57:00.387Z,2.00
2018-09-23T03:59:28.456Z,1.60
2018-09-23T04:01:56.496Z,2.27
2018-09-23T04:04:24.653Z,2.47
2018-09-23T04:06:52.736Z,1.87
2018-09-23T04:09:20.790Z,1.75
2018-09-23T04:11:48.853Z,2.17
2018-09-23T04:14:16.908Z,1.60
2018-09-23T04:16:44.953Z,1.50
2018-09-23T04:19:13.000Z,1.42
2018-09-23T04:21:41.060Z,1.52
2018-09-23T04:24:09.113Z,1.55
2018-09-23T04:26:37.176Z,1.60
2018-09-23T04:29:05.252Z,1.70
2018-09-23T04:31:33.326Z,1.67
2018-09-23T04:34:01.394Z,1.80
2018-09-23T04:36:29.452Z,1.75
2018-09-23T04:38:57.499Z,1.65
2018-09-23T04:41:25.564Z,1.60
2018-09-23T04:43:53.604Z,1.60
2018-09-23T04:46:21.664Z,1.30
2018-09-23T04:48:49.717Z,1.60
2018-09-23T04:51:17.790Z,2.00
2018-09-23T04:53:45.842Z,1.82
2018-09-23T04:56:13.910Z,1.60
2018-09-23T04:58:41.977Z,1.27
2018-09-23T05:01:10.120Z,2.15
2018-09-23T05:03:38.185Z,1.80
2018-09-23T05:06:06.233Z,2.35
2018-09-23T05:08:34.288Z,2.02
2018-09-23T05:11:02.348Z,2.15
2018-09-23T05:13:30.419Z,2.77
2018-09-23T05:15:58.464Z,2.80
2018-09-23T05:18:26.526Z,2.60
2018-09-23T05:20:54.601Z,3.02
2018-09-23T05:23:22.671Z,3.58
2018-09-23T05:25:50.720Z,3.55
2018-09-23T05:28:18.952Z,4.33
2018-09-23T05:30:46.996Z,3.95
2018-09-23T05:33:15.048Z,4.80
2018-09-23T05:35:43.106Z,3.52
2018-09-23T05:38:11.152Z,5.35
2018-09-23T05:40:39.222Z,4.90
2018-09-23T05:43:07.276Z,5.00
2018-09-23T05:45:35.334Z,4.70
2018-09-23T05:48:03.384Z,4.75
2018-09-23T05:50:31.433Z,4.83
2018-09-23T05:52:59.573Z,4.75
2018-09-23T05:55:27.584Z,5.67
2018-09-23T05:57:55.638Z,6.20
2018-09-23T06:00:23.713Z,6.42
2018-09-23T06:02:51.761Z,5.12
2018-09-23T06:05:19.813Z,5.30
2018-09-23T06:07:47.881Z,4.55
2018-09-23T06:10:15.929Z,5.55
2018-09-23T06:12:43.976Z,5.55
2018-09-23T06:15:12.025Z,6.12
2018-09-23T06:17:40.083Z,5.45
2018-09-23T06:20:08.187Z,4.67
2018-09-23T06:22:36.258Z,5.42
2018-09-23T06:25:04.371Z,5.85
2018-09-23T06:27:32.423Z,4.40
2018-09-23T06:30:00.467Z,4.80
2018-09-23T06:32:28.843Z,5.60
2018-09-23T06:34:56.909Z,4.53
2018-09-23T06:37:24.961Z,4.87
2018-09-23T06:39:53.016Z,4.75
2018-09-23T06:42:21.077Z,4.10
2018-09-23T06:44:49.130Z,3.95
2018-09-23T06:47:17.184Z,3.80
2018-09-23T06:49:45.257Z,4.22
2018-09-23T06:52:13.360Z,3.58
2018-09-23T06:54:41.432Z,4.20
2018-09-23T06:57:09.821Z,3.60
2018-09-23T06:59:37.857Z,2.90
2018-09-23T07:02:05.925Z,3.10
2018-09-23T07:04:34.031Z,3.20
2018-09-23T07:07:02.034Z,3.00
2018-09-23T07:09:30.088Z,2.90
2018-09-23T07:11:58.148Z,2.80
2018-09-23T07:14:26.205Z,4.00
2018-09-23T07:16:54.276Z,3.45
2018-09-23T07:19:22.337Z,2.75
2018-09-23T07:21:50.392Z,2.60
2018-09-23T07:24:18.548Z,2.35
2018-09-23T07:26:46.553Z,2.90
2018-09-23T07:29:14.624Z,3.22
2018-09-23T07:31:42.677Z,3.55
2018-09-23T07:34:10.745Z,3.37
2018-09-23T07:36:38.846Z,2.83
2018-09-23T07:39:07.749Z,3.00
2018-09-23T07:41:35.809Z,3.25
2018-09-23T07:44:03.868Z,2.83
2018-09-23T07:46:31.913Z,3.30
2018-09-23T07:49:00.013Z,3.40
2018-09-23T07:51:28.052Z,3.72
2018-09-23T07:53:56.112Z,3.20
2018-09-23T07:56:24.165Z,3.08
2018-09-23T07:58:52.204Z,3.85
2018-09-23T08:01:20.263Z,3.75
2018-09-23T08:03:48.313Z,4.03
2018-09-23T08:06:16.390Z,3.20
2018-09-23T08:08:44.448Z,2.42
2018-09-23T08:11:12.498Z,3.67
2018-09-23T08:13:40.736Z,2.65
2018-09-23T08:16:08.793Z,3.25
2018-09-23T08:18:36.864Z,3.33
2018-09-23T08:21:05.044Z,3.67
2018-09-23T08:23:33.086Z,3.52
2018-09-23T08:26:01.157Z,3.58
2018-09-23T08:28:29.208Z,3.12
2018-09-23T08:30:57.273Z,3.87
2018-09-23T08:33:25.325Z,3.08
2018-09-23T08:35:53.484Z,3.50
2018-09-23T08:38:21.548Z,2.67
2018-09-23T08:40:49.609Z,3.83
2018-09-23T08:43:17.782Z,3.10
2018-09-23T08:45:46.128Z,3.47
2018-09-23T08:48:14.220Z,2.80
2018-09-23T08:50:42.268Z,3.25
2018-09-23T08:53:10.321Z,2.22
2018-09-23T08:55:38.368Z,2.55
2018-09-23T08:58:06.765Z,2.65
2018-09-23T09:00:34.820Z,2.75
2018-09-23T09:03:02.864Z,2.37
2018-09-23T09:05:30.923Z,2.90
2018-09-23T09:07:58.995Z,2.70
2018-09-23T09:10:27.046Z,2.45
2018-09-23T09:12:55.169Z,2.90
2018-09-23T09:15:23.216Z,2.30
2018-09-23T09:17:51.280Z,1.60
2018-09-23T09:20:19.346Z,1.98
2018-09-23T09:22:47.400Z,1.60
2018-09-23T09:25:15.457Z,1.37
2018-09-23T09:27:44.029Z,1.37
2018-09-23T09:30:12.089Z,1.30
2018-09-23T09:32:40.161Z,1.32
2018-09-23T09:35:08.218Z,1.70
2018-09-23T09:37:36.260Z,1.20
2018-09-23T09:40:04.323Z,1.00
2018-09-23T09:42:32.384Z,1.50
2018-09-23T09:45:00.436Z,1.30
2018-09-23T09:47:28.497Z,1.50
2018-09-23T09:49:56.554Z,1.60
2018-09-23T09:52:24.612Z,1.50
2018-09-23T09:54:52.664Z,1.22
2018-09-23T09:57:20.729Z,1.20
2018-09-23T09:59:48.788Z,1.35
2018-09-23T10:02:16.838Z,1.62
2018-09-23T10:04:44.876Z,1.20
2018-09-23T10:07:12.928Z,1.17
2018-09-23T10:09:40.984Z,1.10
2018-09-23T10:12:09.046Z,1.12
2018-09-23T10:14:37.096Z,0.90
2018-09-23T10:17:05.185Z,1.12
2018-09-23T10:19:33.230Z,1.20
2018-09-23T10:22:01.303Z,1.00
2018-09-23T10:24:29.349Z,1.60
2018-09-23T10:26:57.409Z,1.20
2018-09-23T10:29:25.469Z,1.10
2018-09-23T10:31:53.577Z,1.02
2018-09-23T10:34:21.596Z,1.10
2018-09-23T10:36:49.648Z,0.98
2018-09-23T10:39:17.719Z,1.20
2018-09-23T10:41:45.829Z,1.02
2018-09-23T10:44:13.882Z,0.90
2018-09-23T10:46:41.958Z,0.90
2018-09-23T10:49:10.123Z,1.00
2018-09-23T10:51:38.189Z,1.32
2018-09-23T10:54:06.276Z,1.05
2018-09-23T10:56:34.329Z,1.00
2018-09-23T10:59:02.393Z,1.00
2018-09-23T11:01:30.453Z,1.10
2018-09-23T11:03:58.646Z,1.00
2018-09-23T11:06:26.568Z,1.00
2018-09-23T11:08:54.650Z,0.95
2018-09-23T11:11:22.706Z,1.00
2018-09-23T11:13:50.777Z,1.00
2018-09-23T11:16:18.833Z,0.98
2018-09-23T11:18:46.889Z,1.00
2018-09-23T11:21:14.981Z,0.90
2018-09-23T11:23:43.196Z,0.90
2018-09-23T11:26:11.257Z,1.00
2018-09-23T11:28:39.315Z,1.00
2018-09-23T11:31:07.595Z,1.00
2018-09-23T11:33:35.683Z,1.02
2018-09-23T11:36:03.924Z,0.90
2018-09-23T11:38:31.963Z,0.93
2018-09-23T11:41:00.014Z,1.00
2018-09-23T11:43:28.073Z,0.95
2018-09-23T11:45:56.128Z,1.15
2018-09-23T11:48:24.185Z,1.00
2018-09-23T11:50:52.281Z,1.10
2018-09-23T11:53:20.329Z,1.00
2018-09-23T11:55:48.433Z,1.02
2018-09-23T11:58:16.576Z,0.95
2018-09-23T12:00:44.689Z,1.10
2018-09-23T12:03:12.744Z,1.00
2018-09-23T12:05:40.796Z,0.82
2018-09-23T12:08:08.857Z,1.10
2018-09-23T12:10:36.914Z,1.00
2018-09-23T12:13:04.964Z,1.07
2018-09-23T12:15:33.024Z,1.00
2018-09-23T12:18:01.086Z,1.00
2018-09-23T12:20:29.157Z,0.80
2018-09-23T12:22:57.216Z,1.10
2018-09-23T12:25:25.332Z,1.32
2018-09-23T12:27:53.325Z,0.80
2018-09-23T12:30:21.372Z,0.80
2018-09-23T12:32:49.435Z,0.88
2018-09-23T12:35:17.493Z,3.17
2018-09-23T12:37:45.681Z,1.00
2018-09-23T12:40:13.728Z,1.15
2018-09-23T12:42:41.784Z,0.90
2018-09-23T12:45:09.837Z,1.15
2018-09-23T12:47:37.893Z,0.90
2018-09-23T12:50:05.974Z,1.25
2018-09-23T12:52:34.034Z,1.22
2018-09-23T12:55:02.100Z,0.90
2018-09-23T12:57:30.194Z,1.17
2018-09-23T12:59:58.271Z,1.00
2018-09-23T13:02:26.483Z,1.00
2018-09-23T13:04:54.492Z,0.90
2018-09-23T13:07:22.570Z,0.70
2018-09-23T13:09:50.627Z,0.93
2018-09-23T13:12:18.668Z,0.70
2018-09-23T13:14:46.737Z,0.90
2018-09-23T13:17:14.805Z,1.27
2018-09-23T13:19:42.871Z,1.00
2018-09-23T13:22:10.938Z,1.00
2018-09-23T13:24:38.981Z,0.90
2018-09-23T13:27:07.032Z,0.70
2018-09-23T13:29:35.093Z,1.10
2018-09-23T13:32:03.151Z,0.78
2018-09-23T13:34:31.209Z,0.90
2018-09-23T13:36:59.261Z,0.95
2018-09-23T13:39:27.333Z,0.80
2018-09-23T13:41:55.385Z,0.85
2018-09-23T13:44:23.438Z,1.30
2018-09-23T13:46:51.501Z,0.90
2018-09-23T13:49:19.584Z,0.82
2018-09-23T13:51:47.637Z,0.98
2018-09-23T13:54:16.077Z,0.90
2018-09-23T13:56:44.061Z,0.95
2018-09-23T13:59:12.116Z,0.98
2018-09-23T14:01:40.171Z,0.82
2018-09-23T14:04:08.237Z,0.93
2018-09-23T14:06:36.301Z,1.27
2018-09-23T14:09:05.389Z,1.02
2018-09-23T14:11:33.485Z,1.00
2018-09-23T14:14:01.539Z,0.80
2018-09-23T14:16:29.596Z,0.90
2018-09-23T14:18:57.659Z,1.00
2018-09-23T14:21:25.730Z,1.02
2018-09-23T14:23:53.805Z,0.90
2018-09-23T14:26:21.885Z,1.02
2018-09-23T14:28:49.946Z,0.95
2018-09-23T14:31:18.018Z,1.35
2018-09-23T14:33:46.087Z,1.00
2018-09-23T14:36:20.738Z,2.55
2018-09-23T14:38:48.788Z,1.62
2018-09-23T14:41:16.996Z,1.20
2018-09-23T14:43:45.109Z,1.07
2018-09-23T14:46:13.224Z,1.25
2018-09-23T14:48:41.285Z,2.20
2018-09-23T14:51:09.337Z,1.50
2018-09-23T14:53:37.388Z,0.90
2018-09-23T14:56:05.554Z,1.35
2018-09-23T14:58:33.609Z,0.90
2018-09-23T15:01:01.672Z,0.82
2018-09-23T15:03:29.755Z,0.80
2018-09-23T15:05:57.768Z,0.80
2018-09-23T15:08:25.848Z,0.90
2018-09-23T15:10:53.909Z,0.70
2018-09-23T15:13:22.008Z,1.00
2018-09-23T15:15:50.072Z,1.02
2018-09-23T15:18:18.118Z,0.90
2018-09-23T15:20:46.168Z,0.90
2018-09-23T15:23:14.211Z,0.80
2018-09-23T15:25:42.265Z,0.90
2018-09-23T15:28:10.317Z,0.70
2018-09-23T15:30:38.402Z,0.80
2018-09-23T15:33:06.464Z,0.70
2018-09-23T15:35:34.516Z,0.85
2018-09-23T15:38:02.562Z,1.10
2018-09-23T15:40:30.613Z,0.90
2018-09-23T15:42:58.705Z,0.80
2018-09-23T15:45:26.800Z,0.70
2018-09-23T15:47:54.879Z,1.00
2018-09-23T15:50:22.916Z,0.80
2018-09-23T15:52:50.970Z,0.80
2018-09-23T15:55:19.016Z,0.80
2018-09-23T15:57:47.113Z,0.70
2018-09-23T16:00:15.509Z,0.70
2018-09-23T16:02:43.567Z,0.88
2018-09-23T16:05:11.619Z,0.90
2018-09-23T16:07:39.713Z,1.37
2018-09-23T16:10:07.726Z,1.15
2018-09-23T16:12:35.784Z,0.88
2018-09-23T16:15:03.836Z,0.90
2018-09-23T16:17:31.897Z,0.90
2018-09-23T16:19:59.944Z,0.90
2018-09-23T16:22:27.995Z,0.80
2018-09-23T16:24:56.044Z,1.00
2018-09-23T16:27:24.101Z,0.80
2018-09-23T16:29:52.308Z,0.93
2018-09-23T16:32:20.402Z,0.80
2018-09-23T16:34:48.446Z,0.80
2018-09-23T16:37:16.512Z,0.70
2018-09-23T16:39:44.570Z,0.90
2018-09-23T16:42:12.744Z,0.80
2018-09-23T16:44:40.821Z,0.80
2018-09-23T16:47:08.877Z,1.25
2018-09-23T16:49:36.946Z,0.90
2018-09-23T16:52:04.989Z,0.80
2018-09-23T16:54:33.126Z,0.98
2018-09-23T16:57:01.105Z,1.20
2018-09-23T16:59:29.152Z,0.82
2018-09-23T17:01:57.208Z,0.90
2018-09-23T17:04:25.253Z,0.80
2018-09-23T17:06:53.489Z,1.00
2018-09-23T17:09:21.550Z,0.80
2018-09-23T17:11:49.760Z,0.95
2018-09-23T17:14:17.833Z,0.70
2018-09-23T17:16:45.896Z,0.93
2018-09-23T17:19:13.973Z,0.70
2018-09-23T17:21:42.721Z,0.80
2018-09-23T17:24:10.767Z,0.80
2018-09-23T17:26:38.827Z,0.88
2018-09-23T17:29:06.901Z,0.90
2018-09-23T17:31:34.949Z,0.80
2018-09-23T17:34:03.243Z,0.90
2018-09-23T17:36:31.314Z,0.80
2018-09-23T17:38:59.370Z,0.90
2018-09-23T17:41:27.614Z,0.90
2018-09-23T17:43:55.676Z,0.80
2018-09-23T17:46:23.865Z,1.00
2018-09-23T17:48:51.888Z,0.90
2018-09-23T17:51:20.048Z,0.82
2018-09-23T17:53:48.117Z,1.12
2018-09-23T17:56:16.246Z,1.00
2018-09-23T17:58:44.295Z,1.00
2018-09-23T18:01:12.352Z,0.90
2018-09-23T18:03:40.405Z,1.05
2018-09-23T18:06:08.510Z,1.10
2018-09-23T18:08:36.576Z,1.00
2018-09-23T18:11:04.621Z,0.95
2018-09-23T18:13:32.689Z,1.10
2018-09-23T18:16:00.740Z,0.98
2018-09-23T18:18:28.804Z,1.00
2018-09-23T18:20:56.924Z,1.00
2018-09-23T18:23:25.004Z,0.90
2018-09-23T18:25:53.139Z,1.30
2018-09-23T18:28:21.190Z,1.00
2018-09-23T18:30:49.297Z,1.00
2018-09-23T18:33:17.356Z,0.95
2018-09-23T18:35:45.441Z,0.95
2018-09-23T18:38:13.509Z,0.90
2018-09-23T18:40:41.573Z,1.00
2018-09-23T18:43:09.669Z,0.85
2018-09-23T18:45:37.715Z,1.10
2018-09-23T18:48:05.782Z,0.90
2018-09-23T18:50:33.844Z,1.27
2018-09-23T18:53:07.420Z,1.07
2018-09-23T18:55:39.246Z,0.93
2018-09-23T18:58:07.641Z,1.02
2018-09-23T19:00:35.716Z,1.00
2018-09-23T19:03:04.033Z,0.95
2018-09-23T19:05:32.173Z,0.90
2018-09-23T19:08:00.889Z,1.05
2018-09-23T19:10:29.807Z,1.00
2018-09-23T19:13:03.420Z,1.30
2018-09-23T19:15:32.215Z,1.00
2018-09-23T19:18:00.310Z,1.02
2018-09-23T19:20:28.360Z,1.00
2018-09-23T19:23:01.997Z,0.90
2018-09-23T19:25:30.037Z,1.07
2018-09-23T19:27:58.167Z,1.00
2018-09-23T19:30:26.204Z,1.00
2018-09-23T19:32:54.337Z,0.80
2018-09-23T19:35:22.409Z,1.00
2018-09-23T19:37:50.606Z,1.05
2018-09-23T19:40:18.743Z,1.10
2018-09-23T19:42:46.828Z,0.80
2018-09-23T19:45:14.881Z,1.15
2018-09-23T19:47:42.957Z,1.22
2018-09-23T19:50:11.012Z,1.10
2018-09-23T19:52:39.069Z,0.95
2018-09-23T19:55:07.181Z,1.32
2018-09-23T19:57:35.445Z,1.00
2018-09-23T20:00:03.519Z,1.40
2018-09-23T20:02:31.796Z,1.30
2018-09-23T20:04:59.870Z,1.35
2018-09-23T20:07:28.118Z,0.90
2018-09-23T20:09:56.496Z,1.40
2018-09-23T20:12:24.713Z,1.12
2018-09-23T20:14:52.773Z,1.00
2018-09-23T20:17:21.015Z,1.30
2018-09-23T20:19:49.109Z,1.22
2018-09-23T20:22:17.153Z,1.20
2018-09-23T20:24:45.220Z,1.62
2018-09-23T20:27:13.284Z,1.40
2018-09-23T20:29:41.366Z,1.20
2018-09-23T20:32:09.438Z,1.15
2018-09-23T20:34:37.508Z,1.20
2018-09-23T20:37:05.904Z,2.37
2018-09-23T20:39:34.068Z,1.35
2018-09-23T20:42:02.252Z,1.42
2018-09-23T20:44:30.461Z,1.00
2018-09-23T20:46:58.513Z,1.45
2018-09-23T20:49:26.572Z,1.17
2018-09-23T20:51:54.655Z,1.20
2018-09-23T20:54:22.889Z,1.17
2018-09-23T20:56:51.012Z,1.20
2018-09-23T20:59:19.099Z,1.77
2018-09-23T21:01:47.227Z,1.02
2018-09-23T21:04:15.281Z,1.25
2018-09-23T21:06:43.345Z,1.20
2018-09-23T21:09:11.741Z,1.17
2018-09-23T21:11:39.999Z,1.15
2018-09-23T21:14:08.059Z,1.30
2018-09-23T21:16:36.260Z,1.40
2018-09-23T21:19:04.554Z,1.50
2018-09-23T21:21:32.620Z,1.10
2018-09-23T21:24:00.676Z,1.10
2018-09-23T21:26:28.736Z,1.47
2018-09-23T21:28:56.793Z,1.60
2018-09-23T21:31:24.848Z,1.20
2018-09-23T21:33:52.904Z,1.62
2018-09-23T21:36:20.956Z,1.20
2018-09-23T21:38:49.017Z,1.60
2018-09-23T21:41:17.076Z,1.42
2018-09-23T21:43:45.936Z,1.27
2018-09-23T21:46:13.993Z,1.42
2018-09-23T21:48:42.040Z,1.40
2018-09-23T21:51:10.096Z,1.22
2018-09-23T21:53:38.153Z,1.87
2018-09-23T21:56:06.203Z,1.30
2018-09-23T21:58:34.267Z,1.65
2018-09-23T22:01:02.337Z,1.40
2018-09-23T22:03:30.418Z,1.80
2018-09-23T22:05:58.596Z,1.70
2018-09-23T22:08:26.813Z,1.42
2018-09-23T22:10:54.973Z,1.12
2018-09-23T22:13:23.039Z,1.40
2018-09-23T22:15:51.503Z,1.37
2018-09-23T22:18:19.573Z,1.30
2018-09-23T22:20:47.728Z,1.35
2018-09-23T22:23:15.785Z,1.55
2018-09-23T22:25:43.844Z,1.57
2018-09-23T22:28:11.920Z,1.37
2018-09-23T22:30:39.993Z,1.50
2018-09-23T22:33:08.058Z,1.47
2018-09-23T22:35:36.103Z,1.35
2018-09-23T22:38:04.160Z,1.10
2018-09-23T22:40:32.216Z,1.40
2018-09-23T22:43:00.259Z,1.30
2018-09-23T22:45:28.333Z,1.57
2018-09-23T22:47:56.393Z,1.17
2018-09-23T22:50:24.458Z,1.70
2018-09-23T22:52:52.648Z,1.65
2018-09-23T22:55:20.715Z,1.62
2018-09-23T22:57:48.790Z,1.77
2018-09-23T23:00:16.860Z,1.52
2018-09-23T23:02:44.905Z,1.60
2018-09-23T23:05:12.947Z,1.65
2018-09-23T23:07:41.012Z,1.35
2018-09-23T23:10:09.069Z,1.85
2018-09-23T23:12:37.137Z,1.67
2018-09-23T23:15:05.196Z,1.60
2018-09-23T23:17:33.257Z,2.22
2018-09-23T23:20:01.319Z,2.00
2018-09-23T23:22:29.401Z,2.17
2018-09-23T23:24:57.461Z,2.12
2018-09-23T23:27:25.538Z,2.20
2018-09-23T23:29:53.585Z,1.50
2018-09-23T23:32:21.658Z,1.70
2018-09-23T23:34:49.701Z,2.15
2018-09-23T23:37:17.764Z,2.05
2018-09-23T23:39:45.824Z,1.98
2018-09-23T23:42:13.897Z,1.72
2018-09-23T23:44:41.950Z,2.27
2018-09-23T23:47:10.064Z,2.02
2018-09-23T23:49:38.078Z,2.27
2018-09-23T23:52:06.321Z,2.00
2018-09-23T23:54:34.482Z,2.00
2018-09-23T23:57:02.537Z,2.17
2018-09-23T23:59:30.598Z,1.75
